createdAt,value
2022-10-05T00:06:29.202Z,1.08
2022-10-05T00:16:31.168Z,1.20
2022-10-05T00:26:33.500Z,0.90
2022-10-05T00:36:35.319Z,1.00
2022-10-05T00:46:49.859Z,1.23
2022-10-05T00:57:13.181Z,1.17
2022-10-05T01:07:27.220Z,0.82
2022-10-05T01:17:44.777Z,0.80
2022-10-05T01:28:11.391Z,0.80
2022-10-05T01:38:35.833Z,1.00
2022-10-05T01:49:12.963Z,0.70
2022-10-05T01:59:23.808Z,1.23
2022-10-05T02:09:29.623Z,0.80
2022-10-05T02:19:37.399Z,1.40
2022-10-05T02:29:45.134Z,0.80
2022-10-05T02:40:02.358Z,1.25
2022-10-05T02:50:07.587Z,1.00
2022-10-05T03:00:22.301Z,0.90
2022-10-05T03:10:29.140Z,1.10
2022-10-05T03:20:40.043Z,1.00
2022-10-05T03:30:58.754Z,1.13
2022-10-05T03:41:17.808Z,1.20
2022-10-05T03:51:39.618Z,0.82
2022-10-05T04:02:07.407Z,1.13
2022-10-05T04:12:30.328Z,0.82
2022-10-05T04:22:38.984Z,1.25
2022-10-05T04:32:57.281Z,0.70
2022-10-05T04:43:35.306Z,1.02
2022-10-05T04:53:44.115Z,1.00
2022-10-05T05:04:16.261Z,1.00
2022-10-05T05:14:30.431Z,0.90
2022-10-05T05:24:47.323Z,0.90
2022-10-05T05:35:07.150Z,0.95
2022-10-05T05:45:41.839Z,1.20
2022-10-05T05:55:49.895Z,1.08
2022-10-05T06:05:56.660Z,1.00
2022-10-05T06:16:22.047Z,0.95
2022-10-05T06:26:28.209Z,1.08
2022-10-05T06:36:43.132Z,0.70
2022-10-05T06:47:07.195Z,1.17
2022-10-05T06:57:41.021Z,2.55
2022-10-05T07:08:11.165Z,0.88
2022-10-05T07:18:25.491Z,1.13
2022-10-05T07:28:44.175Z,0.93
2022-10-05T07:38:59.288Z,1.13
2022-10-05T07:49:32.493Z,1.27
2022-10-05T08:00:08.554Z,2.05
2022-10-05T08:10:24.074Z,1.20
2022-10-05T08:20:28.803Z,1.15
2022-10-05T08:30:48.298Z,1.45
2022-10-05T08:41:07.241Z,1.63
2022-10-05T08:51:36.147Z,1.27
2022-10-05T09:02:09.959Z,1.67
2022-10-05T09:12:35.876Z,1.40
2022-10-05T09:22:58.999Z,1.42
2022-10-05T09:33:15.808Z,1.00
2022-10-05T09:43:28.159Z,1.15
2022-10-05T09:53:51.068Z,1.10
2022-10-05T10:04:16.096Z,1.10
2022-10-05T10:14:41.782Z,2.60
2022-10-05T10:25:12.643Z,5.75
2022-10-05T10:35:23.897Z,3.38
2022-10-05T10:45:28.800Z,3.60
2022-10-05T10:55:37.429Z,3.70
2022-10-05T11:05:57.590Z,2.17
2022-10-05T11:16:19.683Z,3.53
2022-10-05T11:26:27.328Z,3.42
2022-10-05T11:37:07.833Z,2.42
2022-10-05T11:47:28.929Z,2.60
2022-10-05T11:57:55.897Z,2.20
2022-10-05T12:08:16.030Z,2.42
2022-10-05T12:18:40.704Z,1.80
2022-10-05T12:29:12.111Z,2.08
2022-10-05T12:39:48.865Z,2.38
2022-10-05T12:50:03.306Z,2.22
2022-10-05T13:00:17.748Z,1.90
2022-10-05T13:10:42.372Z,1.77
2022-10-05T13:20:51.583Z,3.72
2022-10-05T13:31:28.691Z,1.50
2022-10-05T13:42:03.991Z,1.30
2022-10-05T13:52:08.818Z,1.67
2022-10-05T14:02:17.448Z,1.77
2022-10-05T14:12:22.023Z,1.40
2022-10-05T14:22:25.150Z,1.25
2022-10-05T14:32:31.552Z,1.80
2022-10-05T14:42:47.182Z,1.27
2022-10-05T14:53:09.863Z,1.50
2022-10-05T15:03:18.864Z,2.63
2022-10-05T15:13:42.470Z,1.40
2022-10-05T15:23:53.215Z,1.45
2022-10-05T15:34:04.560Z,1.60
2022-10-05T15:44:15.553Z,2.42
2022-10-05T15:54:42.140Z,2.58
2022-10-05T16:05:45.739Z,2.70
2022-10-05T16:16:00.957Z,24.15
2022-10-05T16:26:40.628Z,49.33
2022-10-05T16:36:44.379Z,44.70
2022-10-05T16:46:49.658Z,42.38
2022-10-05T16:56:55.406Z,32.60
2022-10-05T17:07:16.794Z,23.33
2022-10-05T17:17:30.624Z,19.83
2022-10-05T17:27:53.562Z,18.33
2022-10-05T17:38:18.143Z,15.18
2022-10-05T17:48:54.283Z,13.38
2022-10-05T17:59:02.660Z,11.73
2022-10-05T18:09:23.055Z,26.80
2022-10-05T18:19:25.226Z,55.85
2022-10-05T18:30:13.508Z,51.00
2022-10-05T18:40:30.753Z,46.25
2022-10-05T18:50:55.942Z,42.42
2022-10-05T19:01:10.611Z,37.60
2022-10-05T19:11:26.738Z,29.80
2022-10-05T19:21:52.629Z,30.92
2022-10-05T19:32:04.846Z,23.30
2022-10-05T19:42:37.194Z,17.50
2022-10-05T19:52:48.973Z,18.00
2022-10-05T20:03:08.814Z,16.80
2022-10-05T20:13:23.066Z,14.88
2022-10-05T20:23:27.899Z,13.82
2022-10-05T20:33:30.009Z,11.05
2022-10-05T20:43:31.761Z,11.23
2022-10-05T20:53:33.617Z,11.50
2022-10-05T21:03:35.405Z,9.32
2022-10-05T21:13:42.406Z,8.73
2022-10-05T21:23:45.586Z,6.90
2022-10-05T21:33:47.525Z,7.75
2022-10-05T21:43:49.334Z,6.53
2022-10-05T21:53:59.345Z,5.72
2022-10-05T22:04:01.399Z,5.72
2022-10-05T22:14:03.241Z,5.40
2022-10-05T22:24:05.338Z,4.75
2022-10-05T22:34:07.174Z,3.78
2022-10-05T22:44:11.773Z,5.00
2022-10-05T22:54:13.533Z,3.85
2022-10-05T23:04:15.266Z,4.45
2022-10-05T23:14:17.019Z,3.30
2022-10-05T23:24:18.758Z,2.97
2022-10-05T23:34:20.516Z,2.92
2022-10-05T23:44:23.008Z,2.22
2022-10-05T23:54:24.832Z,2.75
